Time;durP1;ratioP1;P1;durP2;ratioP2;P2;SDS_P1;SDS_P2;PMS_P1;PMS_P2;Temp;Humidity;BMP_temperature;BMP_pressure;BME280_temperature;BME280_humidity;BME280_pressure;Samples;Min_cycle;Max_cycle;Signal;HPM_P1;HPM_P2
2023/05/13 00:00:48;;;;;;;20.00;7.50;;;;;;;12.46;47.84;101189.89;124174;1099;104390;-79
2023/05/13 00:03:22;;;;;;;18.80;7.30;;;;;;;12.45;47.98;101190.75;124229;1099;104224;-78
2023/05/13 00:05:54;;;;;;;18.25;7.55;;;;;;;12.43;48.28;101187.14;123922;1099;104409;-79
2023/05/13 00:08:25;;;;;;;17.70;7.40;;;;;;;12.43;48.14;101186.25;124218;1099;104347;-78
2023/05/13 00:10:56;;;;;;;19.73;8.17;;;;;;;12.43;48.25;101189.77;124196;1099;104294;-77
2023/05/13 00:13:27;;;;;;;17.20;7.37;;;;;;;12.39;48.35;101188.77;123935;1099;104310;-78
2023/05/13 00:15:59;;;;;;;20.67;8.07;;;;;;;12.39;48.58;101182.61;124083;1099;104264;-78
2023/05/13 00:18:30;;;;;;;17.17;7.67;;;;;;;12.36;48.83;101193.91;124204;1099;104347;-78
2023/05/13 00:21:01;;;;;;;17.47;7.43;;;;;;;12.35;48.66;101183.32;124015;1099;104271;-78
2023/05/13 00:23:32;;;;;;;16.97;7.70;;;;;;;12.35;49.11;101186.84;124337;1099;104354;-78
2023/05/13 00:26:04;;;;;;;19.45;7.70;;;;;;;12.35;49.00;101186.84;123867;1099;104351;-78
2023/05/13 00:28:35;;;;;;;20.90;8.10;;;;;;;12.34;49.01;101186.77;124144;1099;104373;-78
2023/05/13 00:31:06;;;;;;;18.45;8.20;;;;;;;12.30;49.06;101183.14;123887;1099;104393;-78
2023/05/13 00:33:37;;;;;;;19.87;7.37;;;;;;;12.27;49.37;101182.13;124187;1099;104290;-79
2023/05/13 00:36:11;;;;;;;18.07;7.90;;;;;;;12.21;49.44;101183.66;123990;1099;104333;-79
2023/05/13 00:38:43;;;;;;;17.67;7.75;;;;;;;12.17;49.46;101191.36;124218;1098;104255;-79
2023/05/13 00:41:15;;;;;;;18.77;7.50;;;;;;;12.14;49.96;101197.42;124417;1099;104274;-80
2023/05/13 00:43:46;;;;;;;17.93;7.73;;;;;;;12.09;49.79;101188.45;124582;1099;104169;-79
2023/05/13 00:46:20;;;;;;;17.63;7.50;;;;;;;12.08;50.20;101188.39;124452;1099;104265;-80
2023/05/13 00:48:51;;;;;;;;;;;;;;;12.01;49.40;101185.52;124215;1099;104354;-80
2023/05/13 00:51:22;;;;;;;16.90;7.37;;;;;;;11.99;50.34;101183.64;124636;1099;104278;-80
2023/05/13 00:53:54;;;;;;;17.77;8.23;;;;;;;11.95;50.79;101184.34;124541;1099;104272;-80
2023/05/13 00:56:26;;;;;;;17.50;7.10;;;;;;;11.90;50.87;101184.12;124140;1099;104284;-80
2023/05/13 00:58:57;;;;;;;20.50;8.43;;;;;;;11.83;50.83;101180.34;124087;1099;104291;-79
2023/05/13 01:01:35;;;;;;;20.93;8.33;;;;;;;11.79;51.50;101183.67;124054;1099;104245;-80
2023/05/13 01:04:14;;;;;;;17.77;7.87;;;;;;;11.76;51.69;101187.91;124168;1099;104406;-79
2023/05/13 01:06:59;;;;;;;19.43;9.17;;;;;;;11.69;51.82;101185.03;124158;1099;104344;-79
2023/05/13 01:09:41;;;;;;;23.87;8.60;;;;;;;11.68;51.81;101182.33;124171;1099;104274;-79
2023/05/13 01:12:17;;;;;;;18.20;8.40;;;;;;;11.66;51.78;101186.64;124226;1099;104283;-79
2023/05/13 01:14:54;;;;;;;20.47;8.90;;;;;;;11.63;52.49;101194.39;123914;1099;104445;-79
2023/05/13 01:17:32;;;;;;;21.87;8.70;;;;;;;11.59;52.76;101184.58;124176;1099;104364;-80
2023/05/13 01:20:05;;;;;;;20.00;8.70;;;;;;;11.55;52.91;101188.81;123912;1099;104326;-79
2023/05/13 01:22:36;;;;;;;19.87;9.00;;;;;;;11.54;53.16;101186.12;123866;1099;104306;-79
2023/05/13 01:25:08;;;;;;;20.63;8.37;;;;;;;11.52;53.57;101188.68;124150;1099;104257;-79
2023/05/13 01:27:40;;;;;;;18.03;8.40;;;;;;;11.51;53.16;101193.05;123844;1099;104316;-79
2023/05/13 01:30:14;;;;;;;20.60;8.57;;;;;;;11.50;53.37;101187.73;124005;1099;104223;-79
2023/05/13 01:32:46;;;;;;;20.92;8.75;;;;;;;11.48;53.45;101187.66;123944;1099;104287;-79
2023/05/13 01:35:20;;;;;;;18.02;8.50;;;;;;;11.48;53.49;101187.66;123864;1099;104297;-79
2023/05/13 01:37:53;;;;;;;17.57;8.80;;;;;;;11.47;53.53;101188.48;123868;1099;104332;-81
2023/05/13 01:40:24;;;;;;;19.05;8.80;;;;;;;11.44;53.88;101188.34;124072;1099;104242;-80
2023/05/13 01:42:56;;;;;;;21.35;9.15;;;;;;;11.42;54.08;101182.14;123872;1099;104278;-79
2023/05/13 01:45:29;;;;;;;17.43;8.97;;;;;;;11.42;54.60;101191.73;123761;1099;104251;-79
2023/05/13 01:48:01;;;;;;;19.15;9.28;;;;;;;11.38;54.15;101185.45;123871;1099;104179;-79
2023/05/13 01:50:39;;;;;;;21.27;9.80;;;;;;;11.35;54.51;101181.81;123816;1099;104325;-80
2023/05/13 01:53:11;;;;;;;22.63;9.10;;;;;;;11.33;54.97;101187.00;123945;1099;104272;-78
2023/05/13 01:55:42;;;;;;;19.17;9.13;;;;;;;11.31;54.43;101181.67;124060;1099;104271;-78
2023/05/13 01:58:14;;;;;;;18.73;8.67;;;;;;;11.30;54.59;101181.61;123957;1099;104344;-78
2023/05/13 02:00:45;;;;;;;17.80;8.47;;;;;;;11.28;54.72;101191.12;123828;1099;104322;-78
2023/05/13 02:03:16;;;;;;;19.80;8.47;;;;;;;11.28;55.16;101183.25;123860;1099;104296;-79
2023/05/13 02:05:49;;;;;;;19.30;8.43;;;;;;;11.27;54.91;101178.84;124173;1099;104278;-78
2023/05/13 02:08:24;;;;;;;19.80;8.97;;;;;;;11.24;55.05;101182.22;124299;1099;104328;-79
2023/05/13 02:10:59;;;;;;;19.13;9.13;;;;;;;11.23;54.70;101179.53;124260;1099;104271;-79
2023/05/13 02:13:32;;;;;;;18.20;8.35;;;;;;;11.20;55.03;101180.28;124071;1099;104393;-78
2023/05/13 02:16:04;;;;;;;20.77;8.07;;;;;;;11.20;55.27;101184.64;124056;1099;104264;-78
2023/05/13 02:18:36;;;;;;;18.50;8.33;;;;;;;11.17;55.34;101180.14;124121;1099;104654;-78
2023/05/13 02:21:07;;;;;;;16.37;8.00;;;;;;;11.17;55.07;101182.77;124103;1099;104377;-79
2023/05/13 02:23:38;;;;;;;17.70;8.57;;;;;;;11.15;55.50;101182.70;124026;1099;104245;-79
2023/05/13 02:26:09;;;;;;;18.07;8.40;;;;;;;11.15;55.38;101187.95;124067;1099;104249;-80
2023/05/13 02:28:41;;;;;;;17.27;8.17;;;;;;;11.12;55.40;101193.08;124037;1099;104232;-78
2023/05/13 02:31:12;;;;;;;19.40;8.37;;;;;;;11.09;55.61;101190.31;124078;1099;104254;-79
2023/05/13 02:33:43;;;;;;;22.50;8.20;;;;;;;11.07;55.65;101191.09;124184;1099;104418;-78
2023/05/13 02:36:14;;;;;;;19.40;8.55;;;;;;;11.09;56.20;101192.05;124162;1099;104825;-78
2023/05/13 02:38:46;;;;;;;20.00;8.50;;;;;;;11.10;56.73;101189.49;123929;1099;104673;-78
2023/05/13 02:41:18;;;;;;;17.77;8.33;;;;;;;11.07;57.24;101198.97;123977;1099;104300;-78
2023/05/13 02:43:49;;;;;;;18.50;7.87;;;;;;;11.03;57.01;101194.41;124157;1099;104287;-78
2023/05/13 02:46:20;;;;;;;19.07;8.13;;;;;;;10.99;57.25;101196.00;124123;1099;104377;-79
2023/05/13 02:48:52;;;;;;;16.93;8.17;;;;;;;10.96;57.11;101195.86;124043;1099;104494;-78
2023/05/13 02:51:23;;;;;;;17.70;7.67;;;;;;;10.97;57.42;101195.93;123991;1099;104249;-78
2023/05/13 02:53:54;;;;;;;17.30;7.90;;;;;;;10.96;57.08;101194.13;123871;1099;104287;-79
2023/05/13 02:56:25;;;;;;;18.00;7.87;;;;;;;10.96;57.49;101195.86;124036;1099;102087;-78
2023/05/13 02:58:57;;;;;;;17.57;7.97;;;;;;;10.97;57.86;101197.67;124103;1098;104446;-78
2023/05/13 03:01:28;;;;;;;18.07;8.00;;;;;;;10.96;57.93;101201.11;124062;1099;104231;-78
2023/05/13 03:03:59;;;;;;;16.57;7.80;;;;;;;10.96;57.76;101201.11;124123;1099;104201;-78
2023/05/13 03:06:31;;;;;;;16.57;7.37;;;;;;;10.97;57.47;101197.67;124133;1099;104277;-78
2023/05/13 03:09:02;;;;;;;16.00;7.73;;;;;;;10.97;58.13;101193.30;124160;1099;104369;-78
2023/05/13 03:11:33;;;;;;;17.00;7.30;;;;;;;10.99;57.62;101203.88;124026;1099;104269;-78
2023/05/13 03:14:04;;;;;;;18.23;7.73;;;;;;;11.05;57.98;101201.53;124273;1099;104193;-78
2023/05/13 03:16:35;;;;;;;16.27;7.47;;;;;;;11.08;58.14;101204.30;124121;1099;104259;-79
2023/05/13 03:19:07;;;;;;;17.07;7.67;;;;;;;11.12;58.34;101200.95;124190;1099;104168;-78
2023/05/13 03:21:38;;;;;;;13.77;6.77;;;;;;;11.14;58.32;101209.82;123892;1099;104345;-77
2023/05/13 03:24:12;;;;;;;15.45;6.80;;;;;;;11.15;58.23;101202.83;123807;1099;104297;-78
2023/05/13 03:26:43;;;;;;;16.10;7.23;;;;;;;11.17;58.15;101210.78;123891;1099;104312;-78
2023/05/13 03:29:14;;;;;;;16.93;6.97;;;;;;;11.19;58.43;101210.03;123875;1099;104406;-77
2023/05/13 03:31:46;;;;;;;16.30;7.37;;;;;;;11.22;58.33;101204.91;123951;1099;105704;-78
2023/05/13 03:34:17;;;;;;;17.30;7.00;;;;;;;11.26;57.72;101205.94;123809;1099;104365;-78
2023/05/13 03:36:48;;;;;;;19.23;7.07;;;;;;;11.31;58.02;101207.02;123849;1099;104351;-81
2023/05/13 03:39:20;;;;;;;19.00;7.50;;;;;;;11.36;57.92;101202.89;123783;1099;104335;-78
2023/05/13 03:41:51;;;;;;;16.87;7.00;;;;;;;11.43;58.29;101209.30;124439;1099;104278;-78
2023/05/13 03:44:22;;;;;;;14.75;6.90;;;;;;;11.46;57.95;101210.33;124209;1099;104242;-78
2023/05/13 03:46:54;;;;;;;16.17;6.93;;;;;;;11.51;57.94;101214.08;124074;1099;104364;-78
2023/05/13 03:49:25;;;;;;;16.23;7.00;;;;;;;11.57;58.56;101215.16;123840;1099;104582;-77
2023/05/13 03:51:56;;;;;;;20.23;7.80;;;;;;;11.61;58.18;101214.44;123993;1099;104323;-79
2023/05/13 03:54:27;;;;;;;16.90;7.45;;;;;;;11.64;58.15;101219.83;123861;1099;104358;-78
2023/05/13 03:56:59;;;;;;;17.30;6.87;;;;;;;11.67;58.34;101210.36;124044;1099;104248;-78
2023/05/13 03:59:30;;;;;;;18.67;6.87;;;;;;;11.73;58.52;101209.70;123817;1099;104370;-78
2023/05/13 04:02:01;;;;;;;19.37;7.57;;;;;;;11.79;58.38;101206.45;123769;1099;104398;-78
2023/05/13 04:04:33;;;;;;;18.03;7.90;;;;;;;11.82;58.27;101210.09;123890;1099;104341;-77
2023/05/13 04:07:04;;;;;;;17.03;6.93;;;;;;;11.87;58.51;101208.58;123796;1099;104325;-77
2023/05/13 04:09:35;;;;;;;16.87;7.43;;;;;;;11.93;58.50;101212.32;124059;1099;104328;-77
2023/05/13 04:12:07;;;;;;;14.53;7.10;;;;;;;12.00;58.48;101215.27;124145;1099;104302;-79
2023/05/13 04:14:38;;;;;;;16.73;6.83;;;;;;;12.04;58.36;101217.20;124208;1099;104290;-77
2023/05/13 04:17:10;;;;;;;16.57;7.47;;;;;;;12.12;58.53;101217.48;124081;1099;104300;-77
2023/05/13 04:19:41;;;;;;;16.25;7.35;;;;;;;12.18;58.45;101214.22;124207;1098;104245;-76
2023/05/13 04:22:12;;;;;;;19.40;7.50;;;;;;;12.25;58.68;101212.72;123941;1099;104242;-76
2023/05/13 04:24:44;;;;;;;18.27;7.53;;;;;;;12.29;58.78;101212.02;124295;1099;104404;-77
2023/05/13 04:27:15;;;;;;;16.25;7.10;;;;;;;12.32;58.51;101218.30;123995;1099;104329;-78
2023/05/13 04:29:46;;;;;;;15.35;6.95;;;;;;;12.39;58.75;101222.09;124308;1099;104235;-77
2023/05/13 04:32:20;;;;;;;16.57;6.63;;;;;;;12.44;58.53;101225.80;123977;1099;105675;-77
2023/05/13 04:34:54;;;;;;;17.23;7.20;;;;;;;12.48;58.57;101230.36;124199;1099;104390;-77
2023/05/13 04:37:26;;;;;;;;;;;;;;;12.50;58.00;101233.94;124528;1099;104376;-77
2023/05/13 04:40:00;;;;;;;16.50;7.00;;;;;;;12.55;58.64;101231.48;124027;1099;104379;-78
2023/05/13 04:42:32;;;;;;;16.20;6.50;;;;;;;12.61;58.40;101225.58;124316;1099;104786;-78
2023/05/13 04:45:03;;;;;;;15.00;6.60;;;;;;;12.68;58.57;101230.22;124132;1099;104265;-75
2023/05/13 04:47:36;;;;;;;12.43;6.60;;;;;;;12.75;58.09;101229.63;124036;1099;104211;-76
2023/05/13 04:50:09;;;;;;;17.50;7.30;;;;;;;12.84;58.50;101229.06;124755;1099;104313;-76
2023/05/13 04:52:41;;;;;;;18.90;8.03;;;;;;;12.94;58.06;101228.59;124024;1099;104223;-76
2023/05/13 04:55:15;;;;;;;16.17;7.23;;;;;;;13.04;58.14;101236.01;124169;1099;104169;-75
2023/05/13 04:57:46;;;;;;;15.72;6.65;;;;;;;13.12;58.23;101231.02;124775;1099;104248;-77
2023/05/13 05:00:22;;;;;;;15.57;7.43;;;;;;;13.24;58.38;101230.55;124170;1099;104371;-75
2023/05/13 05:02:55;;;;;;;16.23;6.40;;;;;;;13.33;58.25;101236.20;124361;1099;104175;-77
2023/05/13 05:05:40;;;;;;;16.50;7.20;;;;;;;13.42;58.51;101235.64;124199;1099;104354;-79
2023/05/13 05:08:30;;;;;;;16.43;6.23;;;;;;;13.50;58.47;101236.80;124077;1099;104350;-74
2023/05/13 05:11:05;;;;;;;16.70;6.70;;;;;;;13.61;57.88;101230.16;124220;1099;104344;-75
2023/05/13 05:13:39;;;;;;;14.47;6.40;;;;;;;13.71;58.01;101227.84;115866;1099;10001819;-77
2023/05/13 05:16:10;;;;;;;16.17;6.17;;;;;;;13.87;57.92;101239.81;124424;1099;104329;-77
2023/05/13 05:18:42;;;;;;;13.83;5.70;;;;;;;13.99;58.10;101238.51;124534;1099;104246;-77
2023/05/13 05:21:14;;;;;;;14.37;6.10;;;;;;;14.08;57.67;101234.38;124367;1099;104315;-76
2023/05/13 05:23:45;;;;;;;14.77;5.80;;;;;;;14.19;56.77;101232.97;124742;1099;102735;-78
2023/05/13 05:26:17;;;;;;;15.80;5.93;;;;;;;14.32;56.95;101228.98;124594;1099;104179;-75
2023/05/13 05:28:48;;;;;;;14.17;5.90;;;;;;;14.45;56.74;101230.28;124831;1099;104172;-73
2023/05/13 05:31:25;;;;;;;13.20;5.90;;;;;;;14.55;56.36;101230.63;124847;1099;104385;-73
2023/05/13 05:34:01;;;;;;;14.17;6.10;;;;;;;14.62;56.70;101236.13;124773;1099;104274;-76
2023/05/13 05:36:37;;;;;;;14.85;6.00;;;;;;;14.73;56.65;101234.70;124453;1099;104328;-78
2023/05/13 05:39:24;;;;;;;11.43;5.43;;;;;;;14.85;56.66;101237.72;124798;1099;104505;-79
2023/05/13 05:41:57;;;;;;;13.20;6.15;;;;;;;14.99;56.49;101243.42;124511;1098;104214;-75
2023/05/13 05:44:37;;;;;;;12.60;6.13;;;;;;;15.11;56.06;101242.86;124884;1099;103540;-78
2023/05/13 05:47:10;;;;;;;14.73;6.13;;;;;;;15.21;55.82;101244.05;124695;1099;104200;-76
2023/05/13 05:49:41;;;;;;;12.53;5.83;;;;;;;15.34;55.32;101246.17;124596;1099;104232;-75
2023/05/13 05:52:13;;;;;;;16.87;6.00;;;;;;;15.50;55.20;101249.23;124447;1099;104176;-78
2023/05/13 05:54:45;;;;;;;14.87;5.77;;;;;;;15.60;55.68;101249.53;124454;1099;104164;-76
2023/05/13 05:57:16;;;;;;;9.43;5.33;;;;;;;15.70;55.34;101255.95;124766;1099;104252;-76
2023/05/13 05:59:47;;;;;;;11.87;5.10;;;;;;;15.79;54.75;101242.12;124788;1099;104204;-76
2023/05/13 06:02:21;;;;;;;14.77;5.60;;;;;;;15.91;54.46;101238.88;124504;1099;104344;-78
2023/05/13 06:04:56;;;;;;;14.17;5.37;;;;;;;15.98;54.00;101243.48;124903;1099;104216;-79
2023/05/13 06:07:29;;;;;;;12.57;5.80;;;;;;;16.07;53.95;101245.48;124952;1099;104171;-78
2023/05/13 06:10:02;;;;;;;13.13;5.90;;;;;;;16.11;53.92;101242.95;124693;1099;103256;-80
2023/05/13 06:12:34;;;;;;;13.70;5.23;;;;;;;16.20;53.77;101241.38;126251;1098;104191;-75
2023/05/13 06:15:09;;;;;;;11.83;5.30;;;;;;;16.33;53.08;101239.06;124599;1099;103056;-80
2023/05/13 06:17:41;;;;;;;12.60;5.77;;;;;;;16.43;52.72;101242.81;125049;1098;104166;-73
2023/05/13 06:20:18;;;;;;;13.50;4.97;;;;;;;16.57;52.88;101245.80;124767;1099;102557;-75
2023/05/13 06:22:54;;;;;;;16.00;5.60;;;;;;;16.77;52.41;101248.02;124589;1099;104172;-73
2023/05/13 06:25:28;;;;;;;13.17;4.90;;;;;;;16.91;52.05;101250.97;124912;1099;104179;-76
2023/05/13 06:28:00;;;;;;;11.60;5.23;;;;;;;17.01;51.76;101242.36;124670;1099;102313;-77
2023/05/13 06:30:33;;;;;;;15.27;5.70;;;;;;;17.09;51.03;101246.06;125024;1099;104278;-77
2023/05/13 06:33:09;;;;;;;13.97;5.20;;;;;;;17.18;51.06;101240.06;124749;1099;103661;-79
2023/05/13 06:35:48;;;;;;;16.47;5.50;;;;;;;17.36;50.88;101250.16;124795;1099;104203;-77
2023/05/13 06:38:21;;;;;;;15.70;5.73;;;;;;;17.55;51.28;101240.80;124901;1099;103687;-75
2023/05/13 06:41:00;;;;;;;;;;;;;;;17.64;48.22;101246.27;125038;1099;104287;-79
2023/05/13 06:43:38;;;;;;;14.47;5.00;;;;;;;17.72;49.59;101251.73;124876;1099;104871;-76
2023/05/13 06:46:24;;;;;;;12.33;4.57;;;;;;;17.90;50.10;101246.78;124920;1099;102784;-75
2023/05/13 06:48:57;;;;;;;16.90;5.20;;;;;;;18.14;49.78;101248.06;125100;1099;104226;-74
2023/05/13 06:51:32;;;;;;;17.40;5.03;;;;;;;18.33;49.02;101242.16;124747;1099;104194;-75
2023/05/13 06:54:03;;;;;;;;;;;;;;;18.43;48.28;101239.64;124920;1099;104380;-78
2023/05/13 06:56:39;;;;;;;14.00;5.10;;;;;;;18.46;48.32;101245.89;125421;1099;103417;-76
2023/05/13 06:59:16;;;;;;;14.63;5.40;;;;;;;18.47;48.19;101247.69;124984;1099;104149;-80
2023/05/13 07:01:51;;;;;;;13.83;4.83;;;;;;;18.51;47.78;101248.62;125013;1099;102407;-76
2023/05/13 07:04:29;;;;;;;15.63;5.23;;;;;;;18.66;46.98;101242.65;124988;1099;104165;-79
2023/05/13 07:07:01;;;;;;;11.45;4.60;;;;;;;18.78;46.90;101239.28;125171;1099;104174;-77
2023/05/13 07:09:33;;;;;;;11.23;5.30;;;;;;;18.83;46.21;101234.91;124856;1099;103418;-77
2023/05/13 07:12:07;;;;;;;16.30;5.37;;;;;;;18.92;46.31;101240.39;124867;1099;103605;-78
2023/05/13 07:15:05;;;;;;;15.90;5.13;;;;;;;19.10;45.84;101236.16;125020;1099;104357;-79
2023/05/13 07:17:39;;;;;;;10.93;4.57;;;;;;;19.24;46.34;101239.00;124782;1099;111717;-77
2023/05/13 07:20:21;;;;;;;12.77;4.77;;;;;;;19.36;46.14;101237.36;124994;1099;104169;-78
2023/05/13 07:22:53;;;;;;;11.00;4.80;;;;;;;19.58;44.78;101243.80;125851;1099;104336;-74
2023/05/13 07:25:59;;;;;;;10.77;5.20;;;;;;;19.76;44.88;101234.24;124755;1099;103213;-80
2023/05/13 07:28:36;;;;;;;11.83;4.83;;;;;;;20.11;44.59;101237.22;124678;1099;104248;-79
2023/05/13 07:31:14;;;;;;;11.77;4.83;;;;;;;20.40;45.28;101236.56;124483;1099;104201;-78
2023/05/13 07:33:53;;;;;;;12.67;5.00;;;;;;;20.63;43.84;101241.14;125023;1099;104166;-81
2023/05/13 07:36:29;;;;;;;13.45;4.90;;;;;;;20.81;44.25;101238.61;125127;1099;104391;-78
2023/05/13 07:39:08;;;;;;;;;;;;;;;21.11;43.51;101236.08;124674;1099;104201;-77
2023/05/13 07:41:55;;;;;;;14.23;4.80;;;;;;;21.41;43.18;101245.08;124900;1099;104411;-73
2023/05/13 07:44:35;;;;;;;14.87;4.87;;;;;;;21.71;42.46;101241.63;125252;1099;104165;-74
2023/05/13 07:47:15;;;;;;;9.60;4.85;;;;;;;21.77;40.37;101243.41;124856;1099;104264;-75
2023/05/13 07:49:51;;;;;;;11.60;4.40;;;;;;;21.88;40.11;101244.33;124820;1099;104277;-76
2023/05/13 07:52:25;;;;;;;15.77;5.10;;;;;;;21.97;40.06;101247.01;124428;1099;104223;-76
2023/05/13 07:54:57;;;;;;;13.40;4.50;;;;;;;21.98;40.62;101239.88;124876;1099;104210;-78
2023/05/13 07:57:29;;;;;;;11.33;5.07;;;;;;;22.18;39.63;101238.08;124708;1099;104460;-75
2023/05/13 08:00:02;;;;;;;13.87;4.63;;;;;;;22.42;39.44;101249.67;124968;1099;104169;-74
2023/05/13 08:02:44;;;;;;;15.50;5.10;;;;;;;22.63;39.32;101239.85;124822;1099;103848;-77
2023/05/13 08:05:16;;;;;;;7.90;4.60;;;;;;;22.75;38.26;101246.05;124676;1099;102090;-84
2023/05/13 08:08:38;;;;;;;11.77;4.30;;;;;;;22.86;37.84;101245.11;124786;1099;104150;-80
2023/05/13 08:11:22;;;;;;;12.27;4.33;;;;;;;23.01;37.62;101245.06;126791;1099;109390;-78
2023/05/13 08:13:55;;;;;;;13.27;4.47;;;;;;;23.20;37.41;101245.89;126844;1098;102864;-77
2023/05/13 08:16:29;;;;;;;12.15;4.67;;;;;;;23.47;36.81;101244.00;125345;1099;104165;-76
2023/05/13 08:19:02;;;;;;;14.50;5.20;;;;;;;23.80;36.72;101239.31;125128;1099;103412;-75
2023/05/13 08:21:35;;;;;;;13.17;4.83;;;;;;;23.92;35.87;101247.30;124989;1099;104197;-76
2023/05/13 08:24:07;;;;;;;11.57;4.37;;;;;;;23.96;35.67;101243.67;124490;1099;104248;-77
2023/05/13 08:26:47;;;;;;;11.70;4.95;;;;;;;23.97;35.31;101233.86;124933;1098;104252;-78
2023/05/13 08:29:30;;;;;;;11.13;4.63;;;;;;;24.13;34.92;101230.13;125108;1099;104267;-77
2023/05/13 08:32:06;;;;;;;13.97;4.70;;;;;;;24.27;34.88;101227.33;125111;1099;104297;-81
2023/05/13 08:34:41;;;;;;;12.23;4.33;;;;;;;24.39;34.10;101234.38;125208;1098;104229;-79
2023/05/13 08:37:18;;;;;;;10.50;4.10;;;;;;;24.38;34.01;101230.78;125109;1099;104175;-81
2023/05/13 08:39:50;;;;;;;14.07;4.40;;;;;;;24.51;33.58;101230.66;125107;1099;103107;-82
2023/05/13 08:42:23;;;;;;;11.63;4.27;;;;;;;24.53;33.00;101231.55;124791;1099;104254;-78
2023/05/13 08:45:07;;;;;;;13.90;4.65;;;;;;;24.48;32.47;101225.33;124986;1099;104242;-79
2023/05/13 08:47:52;;;;;;;11.27;4.07;;;;;;;24.34;31.32;101222.78;126170;1098;104322;-82
2023/05/13 08:53:27;;;;;;;11.25;4.12;;;;;;;24.17;31.02;101222.97;126159;1099;104233;-79
2023/05/13 08:56:08;;;;;;;8.53;3.87;;;;;;;24.11;31.04;101220.34;125261;1099;101920;-77
2023/05/13 08:58:48;;;;;;;9.77;3.87;;;;;;;23.97;30.28;101223.14;124915;1099;104168;-80
2023/05/13 09:01:27;;;;;;;7.60;3.90;;;;;;;23.86;30.85;101210.70;125090;1098;103617;-76
2023/05/13 09:04:07;;;;;;;8.90;4.20;;;;;;;23.68;30.59;101217.08;125037;1099;104312;-80
2023/05/13 09:06:46;;;;;;;10.43;3.47;;;;;;;23.54;30.41;101218.94;124598;1099;104216;-76
2023/05/13 09:09:22;;;;;;;9.50;3.97;;;;;;;23.39;30.45;101227.97;125295;1099;104252;-84
2023/05/13 09:11:58;;;;;;;9.67;4.03;;;;;;;23.25;30.30;101228.05;124831;1099;104361;-84
2023/05/13 09:14:35;;;;;;;7.00;3.33;;;;;;;23.15;29.69;101226.30;125084;1099;102181;-77
2023/05/13 09:17:10;;;;;;;6.50;3.33;;;;;;;23.08;29.52;101222.77;125154;1099;103151;-79
2023/05/13 09:19:46;;;;;;;7.97;3.63;;;;;;;23.05;29.92;101220.08;125005;1099;102883;-77
2023/05/13 09:22:24;;;;;;;6.77;3.43;;;;;;;23.01;29.76;101220.97;124964;1099;104246;-82
2023/05/13 09:25:08;;;;;;;7.73;3.83;;;;;;;22.92;29.69;101218.33;124963;1099;104412;-79
2023/05/13 09:27:58;;;;;;;;;;;;;;;;;;;;;
2023/05/13 09:30:42;;;;;;;7.90;3.80;;;;;;;22.87;29.38;101213.00;125202;1099;103681;-85
2023/05/13 09:33:52;;;;;;;8.30;3.90;;;;;;;22.91;29.15;101221.92;125514;1099;103355;-85
2023/05/13 09:36:33;;;;;;;5.30;2.83;;;;;;;22.88;28.83;101201.41;125147;1099;104609;-82
2023/05/13 09:39:09;;;;;;;8.80;3.57;;;;;;;22.86;28.37;101213.91;125149;1099;102530;-78
2023/05/13 09:42:00;;;;;;;6.33;3.63;;;;;;;22.84;28.79;101209.45;124671;1099;104070;-83
2023/05/13 09:44:44;;;;;;;4.27;3.10;;;;;;;22.78;28.96;101208.59;125780;1099;104197;-75
2023/05/13 09:47:16;;;;;;;6.83;3.00;;;;;;;22.67;28.35;101206.83;124558;1102;104174;-74
2023/05/13 09:49:58;;;;;;;7.70;3.43;;;;;;;22.60;28.03;101206.84;125430;1099;102874;-82
2023/05/13 09:52:36;;;;;;;9.07;3.50;;;;;;;22.54;28.24;101204.19;125635;1099;102343;-82
2023/05/13 09:55:13;;;;;;;11.03;4.27;;;;;;;22.42;28.14;101204.22;125106;1099;104213;-76
2023/05/13 09:57:48;;;;;;;8.70;3.90;;;;;;;22.31;28.58;101193.54;125233;1099;104249;-79
2023/05/13 10:00:20;;;;;;;;;;;;;;;22.23;28.50;101192.64;125363;1099;104284;-81
2023/05/13 10:02:51;;;;;;;7.33;3.67;;;;;;;22.20;28.75;101195.31;125039;1099;104169;-82
2023/05/13 10:05:27;;;;;;;11.90;3.87;;;;;;;22.14;27.96;101197.99;125232;1099;104056;-79
2023/05/13 10:08:00;;;;;;;8.23;4.03;;;;;;;22.11;28.35;101192.65;125351;1099;104205;-80
2023/05/13 10:10:40;;;;;;;9.40;4.03;;;;;;;22.06;29.09;101189.98;116987;1099;10003076;-78
2023/05/13 10:13:14;;;;;;;11.40;3.90;;;;;;;22.01;28.17;101189.98;125626;1099;104249;-78
2023/05/13 10:15:59;;;;;;;9.83;4.13;;;;;;;21.97;28.44;101187.31;126970;1098;102025;-83
2023/05/13 10:18:31;;;;;;;12.37;3.53;;;;;;;21.89;29.01;101180.21;126823;1099;101996;-82
2023/05/13 10:21:05;;;;;;;9.03;3.40;;;;;;;21.85;28.65;101182.87;126754;1099;101909;-84
2023/05/13 10:23:40;;;;;;;5.90;3.37;;;;;;;21.83;28.70;101185.55;127000;1098;102352;-83
2023/05/13 10:26:13;;;;;;;10.63;3.90;;;;;;;21.79;28.39;101183.76;127050;1098;102697;-80
2023/05/13 10:28:49;;;;;;;6.73;3.57;;;;;;;21.80;28.64;101184.64;126303;1099;101811;-76
2023/05/13 10:31:25;;;;;;;8.68;3.80;;;;;;;21.84;28.37;101181.09;126789;1099;102363;-82
2023/05/13 10:34:02;;;;;;;10.37;4.10;;;;;;;21.87;28.40;101171.28;126168;1099;111613;-79
2023/05/13 10:36:53;;;;;;;12.07;4.00;;;;;;;21.89;29.06;101174.87;126221;1099;102047;-80
2023/05/13 10:39:51;;;;;;;14.90;4.40;;;;;;;21.95;28.98;101173.08;126754;1099;102287;-79
2023/05/13 10:42:41;;;;;;;10.73;4.33;;;;;;;21.99;29.54;101172.19;126779;1099;102683;-77
2023/05/13 10:45:16;;;;;;;7.03;3.50;;;;;;;21.98;29.27;101173.07;126184;1099;102710;-81
2023/05/13 10:47:55;;;;;;;6.60;3.87;;;;;;;21.95;29.00;101167.73;126301;1099;102515;-81
2023/05/13 10:50:33;;;;;;;13.37;3.73;;;;;;;22.00;29.70;101172.19;126941;1099;102473;-80
2023/05/13 10:53:25;;;;;;;10.57;4.13;;;;;;;22.00;29.68;101171.28;126700;1098;102010;-81
2023/05/13 10:55:59;;;;;;;9.95;3.30;;;;;;;22.04;29.85;101176.62;126635;1098;102401;-78
2023/05/13 10:58:36;;;;;;;11.68;3.70;;;;;;;22.08;29.64;101170.39;126900;1099;102057;-77
2023/05/13 11:01:18;;;;;;;8.43;3.67;;;;;;;22.13;29.20;101169.48;126399;1099;104176;-80
2023/05/13 11:03:57;;;;;;;7.60;3.62;;;;;;;22.18;29.79;101175.73;125102;1099;102955;-77
2023/05/13 11:06:43;;;;;;;12.63;3.80;;;;;;;22.22;28.75;101167.70;116514;1099;10001598;-80
2023/05/13 11:09:34;;;;;;;6.67;3.47;;;;;;;22.29;29.33;101173.04;125997;1098;102482;-83
2023/05/13 11:12:22;;;;;;;11.20;3.73;;;;;;;22.35;29.41;101173.94;125226;1099;104303;-80
2023/05/13 11:15:45;;;;;;;8.33;3.60;;;;;;;22.45;29.34;101182.82;124878;1099;104254;-80
2023/05/13 11:18:17;;;;;;;10.33;4.13;;;;;;;22.54;28.70;101166.75;125046;1098;104205;-79
2023/05/13 11:20:55;;;;;;;7.35;3.50;;;;;;;22.65;28.50;101171.19;125515;1099;104386;-81
2023/05/13 11:23:38;;;;;;;15.07;4.07;;;;;;;22.72;28.51;101173.83;125583;1099;104255;-78
2023/05/13 11:26:16;;;;;;;11.00;3.90;;;;;;;22.81;28.82;101180.91;124981;1099;104283;-81
2023/05/13 11:29:07;;;;;;;6.85;3.72;;;;;;;22.89;28.98;101171.09;125124;1099;103036;-80
2023/05/13 11:31:49;;;;;;;9.17;3.80;;;;;;;23.02;28.91;101181.73;124627;1102;104283;-78
2023/05/13 11:34:23;;;;;;;6.50;3.57;;;;;;;23.06;28.38;101181.72;125480;1099;102596;-79
2023/05/13 11:37:12;;;;;;;7.83;3.80;;;;;;;23.07;28.63;101182.59;126203;1098;102828;-83
2023/05/13 11:39:46;;;;;;;8.17;3.60;;;;;;;22.97;28.02;101184.44;124617;1099;104217;-80
2023/05/13 11:42:21;;;;;;;6.37;3.60;;;;;;;22.91;28.26;101174.64;124717;1099;104302;-80
2023/05/13 11:45:10;;;;;;;8.70;3.60;;;;;;;22.82;28.06;101180.03;126391;1098;103336;-81